sensor_id;sensor_type;location;lat;lon;timestamp;P1;durP1;ratioP1;P2;durP2;ratioP2
85771;SDS011;76212;56.844;41.394;2024-03-08T00:01:35;6.15;;;3.15;;
85771;SDS011;76212;56.844;41.394;2024-03-08T00:04:02;4.70;;;2.53;;
85771;SDS011;76212;56.844;41.394;2024-03-08T00:06:28;4.97;;;2.38;;
85771;SDS011;76212;56.844;41.394;2024-03-08T00:08:57;5.30;;;2.70;;
85771;SDS011;76212;56.844;41.394;2024-03-08T00:11:24;5.55;;;2.53;;
85771;SDS011;76212;56.844;41.394;2024-03-08T00:13:53;3.55;;;1.80;;
85771;SDS011;76212;56.844;41.394;2024-03-08T00:16:19;4.43;;;2.22;;
85771;SDS011;76212;56.844;41.394;2024-03-08T00:18:46;4.75;;;2.60;;
85771;SDS011;76212;56.844;41.394;2024-03-08T00:21:13;5.90;;;2.38;;
85771;SDS011;76212;56.844;41.394;2024-03-08T00:23:41;3.72;;;1.95;;
85771;SDS011;76212;56.844;41.394;2024-03-08T00:26:07;4.25;;;2.58;;
85771;SDS011;76212;56.844;41.394;2024-03-08T00:28:33;4.03;;;2.08;;
85771;SDS011;76212;56.844;41.394;2024-03-08T00:31:00;3.97;;;2.60;;
85771;SDS011;76212;56.844;41.394;2024-03-08T00:33:26;4.32;;;2.67;;
85771;SDS011;76212;56.844;41.394;2024-03-08T00:35:55;3.17;;;2.13;;
85771;SDS011;76212;56.844;41.394;2024-03-08T00:38:23;8.07;;;2.88;;
85771;SDS011;76212;56.844;41.394;2024-03-08T00:40:49;7.60;;;2.65;;
85771;SDS011;76212;56.844;41.394;2024-03-08T00:43:16;4.28;;;2.05;;
85771;SDS011;76212;56.844;41.394;2024-03-08T00:45:42;3.70;;;2.10;;
85771;SDS011;76212;56.844;41.394;2024-03-08T00:48:08;8.13;;;2.70;;
85771;SDS011;76212;56.844;41.394;2024-03-08T00:50:36;6.45;;;2.65;;
85771;SDS011;76212;56.844;41.394;2024-03-08T00:53:03;4.07;;;2.38;;
85771;SDS011;76212;56.844;41.394;2024-03-08T00:55:30;4.05;;;2.65;;
85771;SDS011;76212;56.844;41.394;2024-03-08T00:58:00;3.85;;;2.00;;
85771;SDS011;76212;56.844;41.394;2024-03-08T01:00:26;6.35;;;2.13;;
85771;SDS011;76212;56.844;41.394;2024-03-08T01:02:53;3.45;;;1.80;;
85771;SDS011;76212;56.844;41.394;2024-03-08T01:05:19;4.07;;;2.20;;
85771;SDS011;76212;56.844;41.394;2024-03-08T01:07:46;3.35;;;1.95;;
85771;SDS011;76212;56.844;41.394;2024-03-08T01:10:13;4.50;;;2.13;;
85771;SDS011;76212;56.844;41.394;2024-03-08T01:12:39;2.65;;;2.03;;
85771;SDS011;76212;56.844;41.394;2024-03-08T01:15:05;4.28;;;2.05;;
85771;SDS011;76212;56.844;41.394;2024-03-08T01:17:32;3.58;;;1.83;;
85771;SDS011;76212;56.844;41.394;2024-03-08T01:19:58;5.15;;;2.28;;
85771;SDS011;76212;56.844;41.394;2024-03-08T01:22:25;2.83;;;1.60;;
85771;SDS011;76212;56.844;41.394;2024-03-08T01:24:51;4.28;;;1.88;;
85771;SDS011;76212;56.844;41.394;2024-03-08T01:27:17;2.72;;;1.58;;
85771;SDS011;76212;56.844;41.394;2024-03-08T01:29:44;3.20;;;1.80;;
85771;SDS011;76212;56.844;41.394;2024-03-08T01:32:10;4.47;;;1.80;;
85771;SDS011;76212;56.844;41.394;2024-03-08T01:34:40;2.72;;;1.48;;
85771;SDS011;76212;56.844;41.394;2024-03-08T01:37:06;4.55;;;1.80;;
85771;SDS011;76212;56.844;41.394;2024-03-08T01:39:33;3.50;;;1.73;;
85771;SDS011;76212;56.844;41.394;2024-03-08T01:41:59;5.82;;;2.25;;
85771;SDS011;76212;56.844;41.394;2024-03-08T01:44:26;7.47;;;1.88;;
85771;SDS011;76212;56.844;41.394;2024-03-08T01:46:55;4.18;;;1.85;;
85771;SDS011;76212;56.844;41.394;2024-03-08T01:49:22;8.25;;;2.42;;
85771;SDS011;76212;56.844;41.394;2024-03-08T01:51:51;4.05;;;1.92;;
85771;SDS011;76212;56.844;41.394;2024-03-08T01:54:18;5.68;;;2.38;;
85771;SDS011;76212;56.844;41.394;2024-03-08T01:56:46;4.13;;;2.08;;
85771;SDS011;76212;56.844;41.394;2024-03-08T01:59:14;4.60;;;2.67;;
85771;SDS011;76212;56.844;41.394;2024-03-08T02:01:42;6.25;;;2.70;;
85771;SDS011;76212;56.844;41.394;2024-03-08T02:04:09;9.30;;;3.28;;
85771;SDS011;76212;56.844;41.394;2024-03-08T02:06:36;9.00;;;2.95;;
85771;SDS011;76212;56.844;41.394;2024-03-08T02:09:04;4.63;;;2.58;;
85771;SDS011;76212;56.844;41.394;2024-03-08T02:11:33;4.60;;;2.42;;
85771;SDS011;76212;56.844;41.394;2024-03-08T02:14:01;3.92;;;2.33;;
85771;SDS011;76212;56.844;41.394;2024-03-08T02:16:28;2.55;;;2.22;;
85771;SDS011;76212;56.844;41.394;2024-03-08T02:18:54;5.40;;;2.60;;
85771;SDS011;76212;56.844;41.394;2024-03-08T02:21:22;4.78;;;2.33;;
85771;SDS011;76212;56.844;41.394;2024-03-08T02:23:48;4.53;;;2.80;;
85771;SDS011;76212;56.844;41.394;2024-03-08T02:26:17;4.97;;;2.38;;
85771;SDS011;76212;56.844;41.394;2024-03-08T02:28:46;7.15;;;3.17;;
85771;SDS011;76212;56.844;41.394;2024-03-08T02:31:13;5.95;;;2.25;;
85771;SDS011;76212;56.844;41.394;2024-03-08T02:33:39;6.53;;;2.60;;
85771;SDS011;76212;56.844;41.394;2024-03-08T02:36:05;4.85;;;2.45;;
85771;SDS011;76212;56.844;41.394;2024-03-08T02:38:32;7.93;;;2.58;;
85771;SDS011;76212;56.844;41.394;2024-03-08T02:40:58;5.10;;;2.42;;
85771;SDS011;76212;56.844;41.394;2024-03-08T02:43:25;5.28;;;2.78;;
85771;SDS011;76212;56.844;41.394;2024-03-08T02:45:51;5.18;;;2.72;;
85771;SDS011;76212;56.844;41.394;2024-03-08T02:48:23;4.82;;;2.33;;
85771;SDS011;76212;56.844;41.394;2024-03-08T02:50:51;3.72;;;2.35;;
85771;SDS011;76212;56.844;41.394;2024-03-08T02:53:18;6.20;;;2.15;;
85771;SDS011;76212;56.844;41.394;2024-03-08T02:55:47;4.63;;;2.42;;
85771;SDS011;76212;56.844;41.394;2024-03-08T02:58:17;4.63;;;2.60;;
85771;SDS011;76212;56.844;41.394;2024-03-08T03:00:44;4.30;;;1.75;;
85771;SDS011;76212;56.844;41.394;2024-03-08T03:03:10;7.03;;;2.35;;
85771;SDS011;76212;56.844;41.394;2024-03-08T03:05:36;5.07;;;2.33;;
85771;SDS011;76212;56.844;41.394;2024-03-08T03:08:03;4.18;;;2.42;;
85771;SDS011;76212;56.844;41.394;2024-03-08T03:10:35;4.97;;;2.58;;
85771;SDS011;76212;56.844;41.394;2024-03-08T03:13:01;4.80;;;2.63;;
85771;SDS011;76212;56.844;41.394;2024-03-08T03:15:28;7.10;;;2.50;;
85771;SDS011;76212;56.844;41.394;2024-03-08T03:17:54;4.00;;;2.30;;
85771;SDS011;76212;56.844;41.394;2024-03-08T03:20:21;4.93;;;2.20;;
85771;SDS011;76212;56.844;41.394;2024-03-08T03:22:52;4.30;;;2.10;;
85771;SDS011;76212;56.844;41.394;2024-03-08T03:25:19;5.15;;;3.10;;
85771;SDS011;76212;56.844;41.394;2024-03-08T03:27:54;4.95;;;3.13;;
85771;SDS011;76212;56.844;41.394;2024-03-08T03:30:24;5.70;;;2.42;;
85771;SDS011;76212;56.844;41.394;2024-03-08T03:32:53;5.28;;;2.88;;
85771;SDS011;76212;56.844;41.394;2024-03-08T03:35:20;7.85;;;2.67;;
85771;SDS011;76212;56.844;41.394;2024-03-08T03:37:48;6.40;;;2.88;;
85771;SDS011;76212;56.844;41.394;2024-03-08T03:40:28;6.80;;;2.90;;
85771;SDS011;76212;56.844;41.394;2024-03-08T03:42:55;5.25;;;2.30;;
85771;SDS011;76212;56.844;41.394;2024-03-08T03:45:22;5.60;;;2.63;;
85771;SDS011;76212;56.844;41.394;2024-03-08T03:47:48;5.00;;;2.45;;
85771;SDS011;76212;56.844;41.394;2024-03-08T03:50:15;4.47;;;2.55;;
85771;SDS011;76212;56.844;41.394;2024-03-08T03:52:41;7.20;;;2.65;;
85771;SDS011;76212;56.844;41.394;2024-03-08T03:55:08;5.45;;;2.95;;
85771;SDS011;76212;56.844;41.394;2024-03-08T03:57:36;6.18;;;2.80;;
85771;SDS011;76212;56.844;41.394;2024-03-08T04:00:04;5.60;;;2.53;;
85771;SDS011;76212;56.844;41.394;2024-03-08T04:02:38;4.40;;;2.35;;
85771;SDS011;76212;56.844;41.394;2024-03-08T04:05:06;5.97;;;2.63;;
85771;SDS011;76212;56.844;41.394;2024-03-08T04:07:33;5.43;;;2.88;;
85771;SDS011;76212;56.844;41.394;2024-03-08T04:10:01;5.47;;;2.38;;
85771;SDS011;76212;56.844;41.394;2024-03-08T04:12:32;6.90;;;2.75;;
85771;SDS011;76212;56.844;41.394;2024-03-08T04:15:01;5.28;;;2.60;;
85771;SDS011;76212;56.844;41.394;2024-03-08T04:17:30;6.20;;;3.13;;
85771;SDS011;76212;56.844;41.394;2024-03-08T04:19:56;5.88;;;2.90;;
85771;SDS011;76212;56.844;41.394;2024-03-08T04:22:23;6.10;;;2.85;;
85771;SDS011;76212;56.844;41.394;2024-03-08T04:24:49;7.93;;;2.80;;
85771;SDS011;76212;56.844;41.394;2024-03-08T04:27:16;11.23;;;3.53;;
85771;SDS011;76212;56.844;41.394;2024-03-08T04:29:45;9.35;;;3.28;;
85771;SDS011;76212;56.844;41.394;2024-03-08T04:32:12;6.28;;;3.13;;
85771;SDS011;76212;56.844;41.394;2024-03-08T04:34:39;5.03;;;2.88;;
85771;SDS011;76212;56.844;41.394;2024-03-08T04:37:05;5.57;;;2.42;;
85771;SDS011;76212;56.844;41.394;2024-03-08T04:39:32;3.88;;;2.85;;
85771;SDS011;76212;56.844;41.394;2024-03-08T04:41:59;5.32;;;2.92;;
85771;SDS011;76212;56.844;41.394;2024-03-08T04:44:36;5.28;;;2.67;;
85771;SDS011;76212;56.844;41.394;2024-03-08T04:47:06;4.18;;;2.45;;
85771;SDS011;76212;56.844;41.394;2024-03-08T04:49:32;5.15;;;2.70;;
85771;SDS011;76212;56.844;41.394;2024-03-08T04:52:02;7.00;;;3.22;;
85771;SDS011;76212;56.844;41.394;2024-03-08T04:54:29;4.25;;;2.55;;
85771;SDS011;76212;56.844;41.394;2024-03-08T04:56:56;5.78;;;3.47;;
85771;SDS011;76212;56.844;41.394;2024-03-08T04:59:26;9.07;;;3.55;;
85771;SDS011;76212;56.844;41.394;2024-03-08T05:01:53;7.97;;;3.90;;
85771;SDS011;76212;56.844;41.394;2024-03-08T05:04:20;4.93;;;3.25;;
85771;SDS011;76212;56.844;41.394;2024-03-08T05:06:46;5.80;;;2.38;;
85771;SDS011;76212;56.844;41.394;2024-03-08T05:09:12;4.28;;;2.55;;
85771;SDS011;76212;56.844;41.394;2024-03-08T05:11:43;5.03;;;2.65;;
85771;SDS011;76212;56.844;41.394;2024-03-08T05:14:10;8.23;;;2.83;;
85771;SDS011;76212;56.844;41.394;2024-03-08T05:16:38;6.28;;;2.63;;
85771;SDS011;76212;56.844;41.394;2024-03-08T05:19:05;7.60;;;2.65;;
85771;SDS011;76212;56.844;41.394;2024-03-08T05:21:31;6.15;;;2.72;;
85771;SDS011;76212;56.844;41.394;2024-03-08T05:23:58;7.53;;;3.00;;
85771;SDS011;76212;56.844;41.394;2024-03-08T05:26:24;3.70;;;2.35;;
85771;SDS011;76212;56.844;41.394;2024-03-08T05:28:50;8.02;;;3.70;;
85771;SDS011;76212;56.844;41.394;2024-03-08T05:31:20;5.03;;;3.00;;
85771;SDS011;76212;56.844;41.394;2024-03-08T05:33:48;4.53;;;2.45;;
85771;SDS011;76212;56.844;41.394;2024-03-08T05:36:15;7.85;;;3.25;;
85771;SDS011;76212;56.844;41.394;2024-03-08T05:38:45;7.68;;;3.53;;
85771;SDS011;76212;56.844;41.394;2024-03-08T05:41:12;5.13;;;2.40;;
85771;SDS011;76212;56.844;41.394;2024-03-08T05:43:38;4.63;;;2.75;;
85771;SDS011;76212;56.844;41.394;2024-03-08T05:46:06;8.23;;;3.13;;
85771;SDS011;76212;56.844;41.394;2024-03-08T05:48:32;6.63;;;2.95;;
85771;SDS011;76212;56.844;41.394;2024-03-08T05:51:02;6.47;;;2.90;;
85771;SDS011;76212;56.844;41.394;2024-03-08T05:53:28;6.85;;;3.40;;
85771;SDS011;76212;56.844;41.394;2024-03-08T05:55:58;9.02;;;3.22;;
85771;SDS011;76212;56.844;41.394;2024-03-08T05:58:24;5.05;;;2.58;;
85771;SDS011;76212;56.844;41.394;2024-03-08T06:00:51;6.53;;;3.45;;
85771;SDS011;76212;56.844;41.394;2024-03-08T06:03:17;6.65;;;3.70;;
85771;SDS011;76212;56.844;41.394;2024-03-08T06:05:48;5.43;;;2.88;;
85771;SDS011;76212;56.844;41.394;2024-03-08T06:08:16;5.80;;;3.42;;
85771;SDS011;76212;56.844;41.394;2024-03-08T06:10:46;5.25;;;2.65;;
85771;SDS011;76212;56.844;41.394;2024-03-08T06:13:18;7.68;;;3.20;;
85771;SDS011;76212;56.844;41.394;2024-03-08T06:15:45;6.22;;;3.33;;
85771;SDS011;76212;56.844;41.394;2024-03-08T06:18:11;6.75;;;2.90;;
85771;SDS011;76212;56.844;41.394;2024-03-08T06:20:37;6.65;;;3.50;;
85771;SDS011;76212;56.844;41.394;2024-03-08T06:23:03;6.82;;;3.47;;
85771;SDS011;76212;56.844;41.394;2024-03-08T06:25:30;5.47;;;3.00;;
85771;SDS011;76212;56.844;41.394;2024-03-08T06:27:56;7.05;;;3.38;;
85771;SDS011;76212;56.844;41.394;2024-03-08T06:30:23;4.03;;;2.55;;
85771;SDS011;76212;56.844;41.394;2024-03-08T06:32:49;5.38;;;3.08;;
85771;SDS011;76212;56.844;41.394;2024-03-08T06:35:15;6.35;;;3.25;;
85771;SDS011;76212;56.844;41.394;2024-03-08T06:37:42;7.00;;;3.55;;
85771;SDS011;76212;56.844;41.394;2024-03-08T06:40:10;5.15;;;2.72;;
85771;SDS011;76212;56.844;41.394;2024-03-08T06:42:39;5.55;;;3.15;;
85771;SDS011;76212;56.844;41.394;2024-03-08T06:45:07;4.85;;;3.38;;
85771;SDS011;76212;56.844;41.394;2024-03-08T06:47:34;7.35;;;3.58;;
85771;SDS011;76212;56.844;41.394;2024-03-08T06:50:01;7.47;;;2.97;;
85771;SDS011;76212;56.844;41.394;2024-03-08T06:52:27;5.65;;;3.65;;
85771;SDS011;76212;56.844;41.394;2024-03-08T06:54:53;5.85;;;3.10;;
85771;SDS011;76212;56.844;41.394;2024-03-08T06:57:20;7.63;;;4.28;;
85771;SDS011;76212;56.844;41.394;2024-03-08T06:59:48;6.07;;;3.60;;
85771;SDS011;76212;56.844;41.394;2024-03-08T07:02:17;9.80;;;3.28;;
85771;SDS011;76212;56.844;41.394;2024-03-08T07:04:43;5.78;;;2.78;;
85771;SDS011;76212;56.844;41.394;2024-03-08T07:07:09;5.82;;;3.42;;
85771;SDS011;76212;56.844;41.394;2024-03-08T07:09:38;7.20;;;3.92;;
85771;SDS011;76212;56.844;41.394;2024-03-08T07:12:05;5.70;;;3.58;;
85771;SDS011;76212;56.844;41.394;2024-03-08T07:14:32;5.70;;;3.05;;
85771;SDS011;76212;56.844;41.394;2024-03-08T07:16:58;5.13;;;3.05;;
85771;SDS011;76212;56.844;41.394;2024-03-08T07:19:25;6.50;;;3.28;;
85771;SDS011;76212;56.844;41.394;2024-03-08T07:21:51;6.53;;;3.40;;
85771;SDS011;76212;56.844;41.394;2024-03-08T07:24:17;3.90;;;2.58;;
85771;SDS011;76212;56.844;41.394;2024-03-08T07:26:43;6.03;;;3.35;;
85771;SDS011;76212;56.844;41.394;2024-03-08T07:29:10;5.88;;;3.17;;
85771;SDS011;76212;56.844;41.394;2024-03-08T07:31:36;5.30;;;3.15;;
85771;SDS011;76212;56.844;41.394;2024-03-08T07:34:31;5.50;;;3.33;;
85771;SDS011;76212;56.844;41.394;2024-03-08T07:36:59;4.65;;;2.92;;
85771;SDS011;76212;56.844;41.394;2024-03-08T07:39:25;5.30;;;3.13;;
85771;SDS011;76212;56.844;41.394;2024-03-08T07:41:52;9.75;;;3.70;;
85771;SDS011;76212;56.844;41.394;2024-03-08T07:44:18;6.68;;;3.45;;
85771;SDS011;76212;56.844;41.394;2024-03-08T07:46:45;15.65;;;7.15;;
85771;SDS011;76212;56.844;41.394;2024-03-08T07:49:11;12.90;;;5.80;;
85771;SDS011;76212;56.844;41.394;2024-03-08T07:51:38;20.25;;;8.63;;
85771;SDS011;76212;56.844;41.394;2024-03-08T07:54:04;11.63;;;6.22;;
85771;SDS011;76212;56.844;41.394;2024-03-08T07:56:31;3.58;;;2.22;;
85771;SDS011;76212;56.844;41.394;2024-03-08T07:58:58;5.82;;;3.20;;
85771;SDS011;76212;56.844;41.394;2024-03-08T08:01:24;8.10;;;3.72;;
85771;SDS011;76212;56.844;41.394;2024-03-08T08:03:50;4.55;;;2.78;;
85771;SDS011;76212;56.844;41.394;2024-03-08T08:06:17;6.30;;;3.38;;
85771;SDS011;76212;56.844;41.394;2024-03-08T08:08:43;4.57;;;2.53;;
85771;SDS011;76212;56.844;41.394;2024-03-08T08:11:10;5.40;;;2.90;;
85771;SDS011;76212;56.844;41.394;2024-03-08T08:13:42;8.20;;;3.42;;
85771;SDS011;76212;56.844;41.394;2024-03-08T08:16:09;7.00;;;3.78;;
85771;SDS011;76212;56.844;41.394;2024-03-08T08:18:39;6.13;;;3.50;;
85771;SDS011;76212;56.844;41.394;2024-03-08T08:21:06;11.70;;;6.22;;
85771;SDS011;76212;56.844;41.394;2024-03-08T08:23:32;7.95;;;3.50;;
85771;SDS011;76212;56.844;41.394;2024-03-08T08:25:59;5.70;;;2.70;;
85771;SDS011;76212;56.844;41.394;2024-03-08T08:28:25;9.00;;;4.75;;
85771;SDS011;76212;56.844;41.394;2024-03-08T08:30:52;4.97;;;2.85;;
85771;SDS011;76212;56.844;41.394;2024-03-08T08:33:18;5.90;;;3.53;;
85771;SDS011;76212;56.844;41.394;2024-03-08T08:35:47;6.15;;;3.63;;
85771;SDS011;76212;56.844;41.394;2024-03-08T08:38:14;7.05;;;3.28;;
85771;SDS011;76212;56.844;41.394;2024-03-08T08:40:40;5.35;;;2.50;;
85771;SDS011;76212;56.844;41.394;2024-03-08T08:43:07;4.60;;;3.28;;
85771;SDS011;76212;56.844;41.394;2024-03-08T08:45:34;6.78;;;4.05;;
85771;SDS011;76212;56.844;41.394;2024-03-08T08:48:02;5.30;;;2.75;;
85771;SDS011;76212;56.844;41.394;2024-03-08T08:50:31;7.03;;;3.70;;
85771;SDS011;76212;56.844;41.394;2024-03-08T08:52:58;5.25;;;3.05;;
85771;SDS011;76212;56.844;41.394;2024-03-08T08:55:24;4.85;;;3.03;;
85771;SDS011;76212;56.844;41.394;2024-03-08T08:57:51;6.18;;;2.92;;
85771;SDS011;76212;56.844;41.394;2024-03-08T09:00:21;6.82;;;3.38;;
85771;SDS011;76212;56.844;41.394;2024-03-08T09:02:50;5.13;;;2.83;;
85771;SDS011;76212;56.844;41.394;2024-03-08T09:05:17;3.42;;;2.25;;
85771;SDS011;76212;56.844;41.394;2024-03-08T09:07:43;5.88;;;3.10;;
85771;SDS011;76212;56.844;41.394;2024-03-08T09:10:10;4.93;;;2.78;;
85771;SDS011;76212;56.844;41.394;2024-03-08T09:12:38;6.80;;;3.72;;
85771;SDS011;76212;56.844;41.394;2024-03-08T09:15:05;5.40;;;3.05;;
85771;SDS011;76212;56.844;41.394;2024-03-08T09:17:37;7.55;;;3.30;;
85771;SDS011;76212;56.844;41.394;2024-03-08T09:20:07;6.68;;;3.33;;
85771;SDS011;76212;56.844;41.394;2024-03-08T09:22:40;6.72;;;3.40;;
85771;SDS011;76212;56.844;41.394;2024-03-08T09:25:10;6.20;;;3.15;;
85771;SDS011;76212;56.844;41.394;2024-03-08T09:27:36;5.95;;;3.50;;
85771;SDS011;76212;56.844;41.394;2024-03-08T09:30:04;7.10;;;3.65;;
85771;SDS011;76212;56.844;41.394;2024-03-08T09:32:32;7.43;;;3.30;;
85771;SDS011;76212;56.844;41.394;2024-03-08T09:34:59;7.15;;;3.63;;
85771;SDS011;76212;56.844;41.394;2024-03-08T09:37:27;13.77;;;6.15;;
85771;SDS011;76212;56.844;41.394;2024-03-08T09:39:53;5.93;;;3.05;;
85771;SDS011;76212;56.844;41.394;2024-03-08T09:42:19;4.57;;;2.05;;
85771;SDS011;76212;56.844;41.394;2024-03-08T09:44:46;5.78;;;3.38;;
85771;SDS011;76212;56.844;41.394;2024-03-08T09:47:13;6.25;;;4.03;;
85771;SDS011;76212;56.844;41.394;2024-03-08T09:49:40;4.80;;;2.35;;
85771;SDS011;76212;56.844;41.394;2024-03-08T09:52:07;5.25;;;2.97;;
85771;SDS011;76212;56.844;41.394;2024-03-08T09:54:34;6.28;;;3.80;;
85771;SDS011;76212;56.844;41.394;2024-03-08T09:57:00;7.65;;;3.80;;
85771;SDS011;76212;56.844;41.394;2024-03-08T09:59:30;2.70;;;1.85;;
85771;SDS011;76212;56.844;41.394;2024-03-08T10:02:02;4.70;;;1.85;;
85771;SDS011;76212;56.844;41.394;2024-03-08T10:04:28;3.28;;;2.00;;
85771;SDS011;76212;56.844;41.394;2024-03-08T10:07:00;4.38;;;2.30;;
85771;SDS011;76212;56.844;41.394;2024-03-08T10:09:27;3.78;;;1.98;;
85771;SDS011;76212;56.844;41.394;2024-03-08T10:11:55;2.90;;;1.38;;
85771;SDS011;76212;56.844;41.394;2024-03-08T10:14:23;5.90;;;2.65;;
85771;SDS011;76212;56.844;41.394;2024-03-08T10:16:52;4.03;;;2.20;;
85771;SDS011;76212;56.844;41.394;2024-03-08T10:19:19;3.83;;;2.10;;
85771;SDS011;76212;56.844;41.394;2024-03-08T10:21:49;3.45;;;2.05;;
85771;SDS011;76212;56.844;41.394;2024-03-08T10:24:16;4.05;;;2.13;;
85771;SDS011;76212;56.844;41.394;2024-03-08T10:26:43;3.80;;;1.80;;
85771;SDS011;76212;56.844;41.394;2024-03-08T10:29:10;5.20;;;2.22;;
85771;SDS011;76212;56.844;41.394;2024-03-08T10:31:44;2.72;;;1.80;;
85771;SDS011;76212;56.844;41.394;2024-03-08T10:34:10;4.30;;;2.40;;
85771;SDS011;76212;56.844;41.394;2024-03-08T10:36:37;4.03;;;2.38;;
85771;SDS011;76212;56.844;41.394;2024-03-08T10:39:21;3.72;;;1.90;;
85771;SDS011;76212;56.844;41.394;2024-03-08T10:41:53;4.50;;;2.15;;
85771;SDS011;76212;56.844;41.394;2024-03-08T10:44:32;4.07;;;1.63;;
85771;SDS011;76212;56.844;41.394;2024-03-08T10:47:24;5.05;;;2.50;;
85771;SDS011;76212;56.844;41.394;2024-03-08T10:50:02;4.93;;;2.95;;
85771;SDS011;76212;56.844;41.394;2024-03-08T10:52:39;5.85;;;2.42;;
85771;SDS011;76212;56.844;41.394;2024-03-08T10:55:06;3.83;;;2.35;;
85771;SDS011;76212;56.844;41.394;2024-03-08T10:57:40;3.08;;;1.70;;
85771;SDS011;76212;56.844;41.394;2024-03-08T11:00:07;3.22;;;2.38;;
85771;SDS011;76212;56.844;41.394;2024-03-08T11:02:38;3.08;;;2.15;;
85771;SDS011;76212;56.844;41.394;2024-03-08T11:05:04;1.67;;;1.30;;
85771;SDS011;76212;56.844;41.394;2024-03-08T11:07:34;5.05;;;2.00;;
85771;SDS011;76212;56.844;41.394;2024-03-08T11:10:04;4.53;;;1.95;;
85771;SDS011;76212;56.844;41.394;2024-03-08T11:12:40;4.97;;;2.33;;
85771;SDS011;76212;56.844;41.394;2024-03-08T11:15:10;4.78;;;2.20;;
85771;SDS011;76212;56.844;41.394;2024-03-08T11:20:15;5.90;;;3.15;;
85771;SDS011;76212;56.844;41.394;2024-03-08T11:22:49;5.88;;;3.17;;
85771;SDS011;76212;56.844;41.394;2024-03-08T11:28:10;4.72;;;2.03;;
85771;SDS011;76212;56.844;41.394;2024-03-08T11:31:21;3.28;;;1.92;;
85771;SDS011;76212;56.844;41.394;2024-03-08T11:33:39;4.10;;;2.00;;
85771;SDS011;76212;56.844;41.394;2024-03-08T11:36:22;3.60;;;1.88;;
85771;SDS011;76212;56.844;41.394;2024-03-08T11:38:50;3.63;;;1.90;;
85771;SDS011;76212;56.844;41.394;2024-03-08T11:41:19;5.13;;;2.30;;
85771;SDS011;76212;56.844;41.394;2024-03-08T11:43:47;3.28;;;1.55;;
85771;SDS011;76212;56.844;41.394;2024-03-08T11:46:14;2.83;;;1.48;;
85771;SDS011;76212;56.844;41.394;2024-03-08T11:48:43;3.35;;;1.58;;
85771;SDS011;76212;56.844;41.394;2024-03-08T11:51:14;4.38;;;2.13;;
85771;SDS011;76212;56.844;41.394;2024-03-08T11:53:44;6.57;;;4.38;;
85771;SDS011;76212;56.844;41.394;2024-03-08T11:56:11;3.92;;;1.75;;
85771;SDS011;76212;56.844;41.394;2024-03-08T11:58:39;3.08;;;1.73;;
85771;SDS011;76212;56.844;41.394;2024-03-08T12:01:06;2.38;;;1.30;;
85771;SDS011;76212;56.844;41.394;2024-03-08T12:03:42;3.75;;;1.73;;
85771;SDS011;76212;56.844;41.394;2024-03-08T12:06:10;3.25;;;1.48;;
85771;SDS011;76212;56.844;41.394;2024-03-08T12:08:39;2.63;;;1.80;;
85771;SDS011;76212;56.844;41.394;2024-03-08T12:11:05;3.75;;;1.40;;
85771;SDS011;76212;56.844;41.394;2024-03-08T12:13:33;2.65;;;1.58;;
85771;SDS011;76212;56.844;41.394;2024-03-08T12:16:03;3.60;;;1.73;;
85771;SDS011;76212;56.844;41.394;2024-03-08T12:18:33;4.40;;;1.85;;
85771;SDS011;76212;56.844;41.394;2024-03-08T12:21:04;3.92;;;1.80;;
85771;SDS011;76212;56.844;41.394;2024-03-08T12:23:36;3.08;;;1.75;;
85771;SDS011;76212;56.844;41.394;2024-03-08T12:28:40;3.03;;;2.15;;
85771;SDS011;76212;56.844;41.394;2024-03-08T12:31:09;5.05;;;2.10;;
85771;SDS011;76212;56.844;41.394;2024-03-08T12:33:46;2.58;;;1.20;;
85771;SDS011;76212;56.844;41.394;2024-03-08T12:36:22;9.60;;;3.55;;
85771;SDS011;76212;56.844;41.394;2024-03-08T12:38:48;5.65;;;2.58;;
85771;SDS011;76212;56.844;41.394;2024-03-08T12:41:15;9.80;;;3.90;;
85771;SDS011;76212;56.844;41.394;2024-03-08T12:43:43;22.88;;;8.27;;
85771;SDS011;76212;56.844;41.394;2024-03-08T12:46:14;17.40;;;6.72;;
85771;SDS011;76212;56.844;41.394;2024-03-08T12:48:42;3.60;;;1.80;;
85771;SDS011;76212;56.844;41.394;2024-03-08T12:51:13;2.65;;;1.35;;
85771;SDS011;76212;56.844;41.394;2024-03-08T12:53:39;3.25;;;2.00;;
85771;SDS011;76212;56.844;41.394;2024-03-08T12:56:06;3.65;;;1.90;;
85771;SDS011;76212;56.844;41.394;2024-03-08T12:58:36;2.22;;;1.30;;
85771;SDS011;76212;56.844;41.394;2024-03-08T13:01:04;2.35;;;1.23;;
85771;SDS011;76212;56.844;41.394;2024-03-08T13:03:33;3.17;;;1.60;;
85771;SDS011;76212;56.844;41.394;2024-03-08T13:06:02;2.65;;;1.63;;
85771;SDS011;76212;56.844;41.394;2024-03-08T13:08:36;2.80;;;1.77;;
85771;SDS011;76212;56.844;41.394;2024-03-08T13:11:06;6.10;;;2.90;;
85771;SDS011;76212;56.844;41.394;2024-03-08T13:13:33;4.57;;;2.72;;
85771;SDS011;76212;56.844;41.394;2024-03-08T13:16:02;2.58;;;1.50;;
85771;SDS011;76212;56.844;41.394;2024-03-08T13:18:29;3.28;;;1.85;;
85771;SDS011;76212;56.844;41.394;2024-03-08T13:20:55;6.00;;;1.70;;
85771;SDS011;76212;56.844;41.394;2024-03-08T13:23:23;2.35;;;1.60;;
85771;SDS011;76212;56.844;41.394;2024-03-08T13:25:49;4.55;;;2.45;;
85771;SDS011;76212;56.844;41.394;2024-03-08T13:28:16;4.28;;;2.30;;
85771;SDS011;76212;56.844;41.394;2024-03-08T13:30:48;4.20;;;2.17;;
85771;SDS011;76212;56.844;41.394;2024-03-08T13:33:14;4.47;;;2.80;;
85771;SDS011;76212;56.844;41.394;2024-03-08T13:35:41;3.03;;;1.88;;
85771;SDS011;76212;56.844;41.394;2024-03-08T13:38:07;3.70;;;2.17;;
85771;SDS011;76212;56.844;41.394;2024-03-08T13:40:37;3.45;;;2.22;;
85771;SDS011;76212;56.844;41.394;2024-03-08T13:43:06;5.03;;;2.30;;
85771;SDS011;76212;56.844;41.394;2024-03-08T13:45:36;5.40;;;2.47;;
85771;SDS011;76212;56.844;41.394;2024-03-08T13:48:07;5.40;;;2.63;;
85771;SDS011;76212;56.844;41.394;2024-03-08T13:50:38;3.53;;;2.03;;
85771;SDS011;76212;56.844;41.394;2024-03-08T13:53:05;7.68;;;2.85;;
85771;SDS011;76212;56.844;41.394;2024-03-08T13:55:31;4.28;;;2.60;;
85771;SDS011;76212;56.844;41.394;2024-03-08T13:57:59;6.45;;;3.53;;
85771;SDS011;76212;56.844;41.394;2024-03-08T14:00:26;12.23;;;5.88;;
85771;SDS011;76212;56.844;41.394;2024-03-08T14:02:58;8.70;;;3.75;;
85771;SDS011;76212;56.844;41.394;2024-03-08T14:05:25;6.25;;;3.13;;
85771;SDS011;76212;56.844;41.394;2024-03-08T14:07:51;5.40;;;2.50;;
85771;SDS011;76212;56.844;41.394;2024-03-08T14:10:19;6.43;;;2.92;;
85771;SDS011;76212;56.844;41.394;2024-03-08T14:12:48;6.75;;;3.05;;
85771;SDS011;76212;56.844;41.394;2024-03-08T14:15:16;7.18;;;3.65;;
85771;SDS011;76212;56.844;41.394;2024-03-08T14:17:42;7.47;;;3.80;;
85771;SDS011;76212;56.844;41.394;2024-03-08T14:20:11;9.20;;;4.20;;
85771;SDS011;76212;56.844;41.394;2024-03-08T14:22:38;7.88;;;3.40;;
85771;SDS011;76212;56.844;41.394;2024-03-08T14:25:05;8.70;;;3.92;;
85771;SDS011;76212;56.844;41.394;2024-03-08T14:27:32;6.93;;;3.50;;
85771;SDS011;76212;56.844;41.394;2024-03-08T14:29:58;10.25;;;4.30;;
85771;SDS011;76212;56.844;41.394;2024-03-08T14:32:25;21.50;;;11.27;;
85771;SDS011;76212;56.844;41.394;2024-03-08T14:34:51;12.50;;;6.78;;
85771;SDS011;76212;56.844;41.394;2024-03-08T14:37:18;29.83;;;14.20;;
85771;SDS011;76212;56.844;41.394;2024-03-08T14:39:49;15.48;;;7.50;;
85771;SDS011;76212;56.844;41.394;2024-03-08T14:42:17;14.50;;;7.32;;
85771;SDS011;76212;56.844;41.394;2024-03-08T14:44:44;10.32;;;5.18;;
85771;SDS011;76212;56.844;41.394;2024-03-08T14:47:14;10.13;;;4.32;;